Time;durP1;ratioP1;P1;durP2;ratioP2;P2;SDS_P1;SDS_P2;PMS_P1;PMS_P2;Temp;Humidity;BMP_temperature;BMP_pressure;BME280_temperature;BME280_humidity;BME280_pressure;Samples;Min_cycle;Max_cycle;Signal;HPM_P1;HPM_P2
2022/03/03 00:00:08;;;;;;;30.13;20.90;;;3.00;99.90;;;;;;5133430;28;20200;-65
2022/03/03 00:02:36;;;;;;;27.65;20.30;;;2.90;99.90;;;;;;5133837;27;20220;-66
2022/03/03 00:05:03;;;;;;;28.25;20.65;;;3.00;99.90;;;;;;5133689;28;20200;-66
2022/03/03 00:07:30;;;;;;;30.20;20.95;;;3.10;99.90;;;;;;5133479;28;20193;-66
2022/03/03 00:09:57;;;;;;;30.30;20.92;;;3.10;99.90;;;;;;5133345;28;20289;-66
2022/03/03 00:12:24;;;;;;;29.27;21.15;;;3.10;99.90;;;;;;5133973;27;20201;-66
2022/03/03 00:14:51;;;;;;;30.77;21.30;;;3.10;99.90;;;;;;5133529;28;20291;-68
2022/03/03 00:17:18;;;;;;;32.30;21.20;;;3.10;99.90;;;;;;5133334;28;20220;-67
2022/03/03 00:19:46;;;;;;;28.67;20.80;;;3.10;99.90;;;;;;5132980;27;20710;-67
2022/03/03 00:22:13;;;;;;;35.88;21.05;;;3.00;99.90;;;;;;5133213;28;20201;-66
2022/03/03 00:24:39;;;;;;;30.35;21.15;;;3.10;99.90;;;;;;5133780;28;20208;-67
2022/03/03 00:27:06;;;;;;;29.58;20.40;;;3.00;99.90;;;;;;5133003;28;20729;-67
2022/03/03 00:29:33;;;;;;;30.67;21.05;;;3.00;99.90;;;;;;5136563;27;20220;-67
2022/03/03 00:32:00;;;;;;;31.48;21.40;;;2.90;99.90;;;;;;5137180;27;20201;-67
2022/03/03 00:34:27;;;;;;;32.10;21.92;;;2.90;99.90;;;;;;5137408;27;20319;-67
2022/03/03 00:36:55;;;;;;;30.45;21.42;;;2.80;99.90;;;;;;5137412;27;20247;-67
2022/03/03 00:39:22;;;;;;;30.48;21.58;;;2.80;99.90;;;;;;5136873;27;20251;-67
2022/03/03 00:41:49;;;;;;;32.08;22.02;;;2.80;99.90;;;;;;5137126;27;20196;-67
2022/03/03 00:44:16;;;;;;;32.25;22.20;;;2.80;99.90;;;;;;5137334;27;20690;-66
2022/03/03 00:46:43;;;;;;;29.98;19.48;;;2.80;99.90;;;;;;5137078;27;20200;-67
2022/03/03 00:49:10;;;;;;;28.10;20.60;;;2.90;99.90;;;;;;5136670;27;20303;-67
2022/03/03 00:51:36;;;;;;;34.00;22.08;;;2.80;99.90;;;;;;5136485;27;20287;-67
2022/03/03 00:54:05;;;;;;;31.48;22.15;;;2.80;99.90;;;;;;5136739;27;20295;-66
2022/03/03 00:56:31;;;;;;;36.17;22.83;;;2.70;99.90;;;;;;5137177;27;20343;-67
2022/03/03 00:58:58;;;;;;;29.45;20.42;;;2.70;99.90;;;;;;5137025;27;20258;-67
2022/03/03 01:01:25;;;;;;;29.63;20.52;;;2.60;99.90;;;;;;5136995;27;20287;-66
2022/03/03 01:03:52;;;;;;;38.60;22.15;;;2.60;99.90;;;;;;5137414;27;20240;-66
2022/03/03 01:06:19;;;;;;;32.20;20.38;;;2.60;99.90;;;;;;5137119;27;20291;-66
2022/03/03 01:08:46;;;;;;;30.55;20.52;;;2.60;99.90;;;;;;5136510;27;20217;-66
2022/03/03 01:11:14;;;;;;;31.63;21.38;;;2.70;99.90;;;;;;5136346;27;20299;-66
2022/03/03 01:13:41;;;;;;;31.25;21.52;;;2.70;99.90;;;;;;5136869;27;20201;-67
2022/03/03 01:16:07;;;;;;;26.55;20.63;;;2.80;99.90;;;;;;5136665;27;20203;-66
2022/03/03 01:18:34;;;;;;;29.83;21.45;;;2.70;99.90;;;;;;5136494;27;20224;-66
2022/03/03 01:21:01;;;;;;;35.97;21.15;;;2.70;99.90;;;;;;5136050;27;20292;-66
2022/03/03 01:23:28;;;;;;;31.90;23.00;;;2.70;99.90;;;;;;5136687;27;20204;-66
2022/03/03 01:25:55;;;;;;;29.52;20.27;;;2.70;99.90;;;;;;5136529;27;20204;-66
2022/03/03 01:28:23;;;;;;;26.15;21.05;;;2.70;99.90;;;;;;5136538;27;20706;-67
2022/03/03 01:30:50;;;;;;;33.83;22.80;;;2.70;99.90;;;;;;5137356;27;20570;-67
2022/03/03 01:33:16;;;;;;;31.00;22.23;;;2.60;99.90;;;;;;5137355;27;20292;-67
2022/03/03 01:35:43;;;;;;;29.70;21.17;;;2.50;99.90;;;;;;5137343;27;20201;-67
2022/03/03 01:38:10;;;;;;;31.33;20.85;;;2.50;99.90;;;;;;5136980;27;20657;-67
2022/03/03 01:40:37;;;;;;;29.23;21.25;;;2.40;99.90;;;;;;5135797;27;20204;-67
2022/03/03 01:43:05;;;;;;;30.33;21.40;;;2.30;99.90;;;;;;5137143;27;20204;-67
2022/03/03 01:45:33;;;;;;;34.13;22.30;;;2.30;99.90;;;;;;5137128;27;20292;-67
2022/03/03 01:48:02;;;;;;;32.20;22.13;;;2.30;99.90;;;;;;5136972;27;20307;-67
2022/03/03 01:50:28;;;;;;;30.63;21.40;;;2.20;99.90;;;;;;5136671;27;20185;-67
2022/03/03 01:52:55;;;;;;;31.38;22.80;;;2.10;99.90;;;;;;5136905;27;20203;-67
2022/03/03 01:55:22;;;;;;;34.70;22.38;;;2.00;99.90;;;;;;5137176;27;20200;-67
2022/03/03 01:57:50;;;;;;;35.42;21.83;;;2.10;99.90;;;;;;5136763;27;20224;-67
2022/03/03 02:00:18;;;;;;;31.00;22.67;;;2.20;99.90;;;;;;5136752;27;20627;-67
2022/03/03 02:02:47;;;;;;;31.55;21.70;;;2.20;99.90;;;;;;5136750;27;20692;-67
2022/03/03 02:05:14;;;;;;;32.33;21.60;;;2.20;99.90;;;;;;5136640;27;20212;-66
2022/03/03 02:07:41;;;;;;;30.35;22.50;;;2.20;99.90;;;;;;5136592;27;20209;-67
2022/03/03 02:10:08;;;;;;;32.88;21.80;;;2.30;99.90;;;;;;5136560;27;20209;-67
2022/03/03 02:12:35;;;;;;;33.45;22.73;;;2.30;99.90;;;;;;5136482;27;20201;-67
2022/03/03 02:15:02;;;;;;;35.00;22.90;;;2.30;99.90;;;;;;5136442;27;20204;-67
2022/03/03 02:17:29;;;;;;;35.80;22.35;;;2.30;99.90;;;;;;5136317;27;20295;-67
2022/03/03 02:19:57;;;;;;;32.80;23.60;;;2.30;99.90;;;;;;5136267;27;20187;-67
2022/03/03 02:22:25;;;;;;;35.17;23.77;;;1.90;99.90;;;;;;5136772;27;20200;-67
2022/03/03 02:24:52;;;;;;;32.42;23.00;;;1.70;99.90;;;;;;5136526;27;20558;-67
2022/03/03 02:27:20;;;;;;;32.13;21.80;;;1.90;99.90;;;;;;5135950;27;20243;-67
2022/03/03 02:29:48;;;;;;;33.08;22.23;;;2.00;99.90;;;;;;5136084;27;20213;-66
2022/03/03 02:32:14;;;;;;;36.00;24.00;;;2.00;99.90;;;;;;5136136;27;20313;-67
2022/03/03 02:34:49;;;;;;;34.88;22.95;;;2.10;99.90;;;;;;5136129;27;20196;-67
2022/03/03 02:37:16;;;;;;;33.78;21.55;;;2.10;99.90;;;;;;5136050;27;20204;-67
2022/03/03 02:39:44;;;;;;;31.58;22.98;;;2.10;99.90;;;;;;5135372;27;20316;-66
2022/03/03 02:42:11;;;;;;;34.53;22.63;;;2.10;99.90;;;;;;5135901;27;20205;-67
2022/03/03 02:44:37;;;;;;;29.52;22.60;;;2.20;99.90;;;;;;5136032;27;20249;-67
2022/03/03 02:47:05;;;;;;;34.50;22.90;;;2.20;99.90;;;;;;5135721;27;20203;-67
2022/03/03 02:49:32;;;;;;;30.08;21.33;;;2.20;99.90;;;;;;5135758;27;20221;-67
2022/03/03 02:51:59;;;;;;;33.28;22.67;;;2.20;99.90;;;;;;5135304;27;20236;-67
2022/03/03 02:54:26;;;;;;;38.00;22.35;;;2.20;99.90;;;;;;5135712;27;20207;-67
2022/03/03 02:59:39;;;;;;;36.85;23.83;;;2.10;99.90;;;;;;5135695;27;20227;-67
2022/03/03 03:02:06;;;;;;;35.35;22.42;;;2.10;99.90;;;;;;5135406;27;20291;-67
2022/03/03 03:04:33;;;;;;;32.63;24.50;;;2.00;99.90;;;;;;5135464;27;20201;-67
2022/03/03 03:07:00;;;;;;;35.25;23.17;;;2.00;99.90;;;;;;5135537;27;20636;-67
2022/03/03 03:09:26;;;;;;;35.38;23.60;;;2.10;99.90;;;;;;5135496;27;20300;-67
2022/03/03 03:11:54;;;;;;;32.58;22.40;;;2.10;99.90;;;;;;5135368;27;20615;-67
2022/03/03 03:14:21;;;;;;;35.65;24.08;;;2.10;99.90;;;;;;5135171;27;20201;-66
2022/03/03 03:16:48;;;;;;;36.70;24.38;;;2.00;99.90;;;;;;5135370;27;20253;-67
2022/03/03 03:19:15;;;;;;;34.22;22.88;;;2.00;99.90;;;;;;5135423;27;20235;-67
2022/03/03 03:21:42;;;;;;;38.60;23.73;;;2.00;99.90;;;;;;5134885;27;20207;-67
2022/03/03 03:24:09;;;;;;;33.85;23.80;;;1.90;99.90;;;;;;5135803;27;20228;-67
2022/03/03 03:26:35;;;;;;;32.13;23.85;;;1.60;99.90;;;;;;5134855;27;20252;-67
2022/03/03 03:29:04;;;;;;;37.50;23.08;;;1.40;99.90;;;;;;5135008;27;20212;-67
2022/03/03 03:31:31;;;;;;;31.80;21.85;;;1.40;99.90;;;;;;5134998;27;20291;-67
2022/03/03 03:33:58;;;;;;;33.58;24.02;;;1.50;99.90;;;;;;5135020;27;20204;-67
2022/03/03 03:36:25;;;;;;;36.25;23.83;;;1.50;99.90;;;;;;5135054;27;20291;-67
2022/03/03 03:38:51;;;;;;;38.60;24.08;;;1.60;99.90;;;;;;5134628;27;20277;-67
2022/03/03 03:41:18;;;;;;;33.65;21.90;;;1.80;99.90;;;;;;5134399;27;20200;-67
2022/03/03 03:43:45;;;;;;;33.40;22.80;;;1.70;99.90;;;;;;5134647;27;20203;-67
2022/03/03 03:46:13;;;;;;;33.38;23.85;;;1.70;99.90;;;;;;5134833;27;20227;-67
2022/03/03 03:48:40;;;;;;;35.15;23.52;;;1.70;99.90;;;;;;5134775;27;20220;-66
2022/03/03 03:51:07;;;;;;;39.47;24.15;;;1.70;99.90;;;;;;5134437;27;20201;-66
2022/03/03 03:53:34;;;;;;;34.20;23.25;;;1.70;99.90;;;;;;5134730;27;20544;-67
2022/03/03 03:56:00;;;;;;;34.30;23.80;;;1.70;99.90;;;;;;5134563;27;20209;-67
2022/03/03 03:58:27;;;;;;;32.72;22.88;;;1.70;99.90;;;;;;5134642;27;20235;-66
2022/03/03 04:00:54;;;;;;;33.67;22.88;;;1.70;99.90;;;;;;5134544;28;20196;-67
2022/03/03 04:03:22;;;;;;;37.58;24.08;;;1.80;99.90;;;;;;5134135;27;20570;-67
2022/03/03 04:05:49;;;;;;;36.53;23.15;;;1.70;99.90;;;;;;5134451;27;20636;-67
2022/03/03 04:08:16;;;;;;;31.60;22.60;;;1.70;99.90;;;;;;5134356;28;20714;-66
2022/03/03 04:10:43;;;;;;;32.53;22.90;;;1.70;99.90;;;;;;5134360;28;20201;-67
2022/03/03 04:13:09;;;;;;;32.15;22.98;;;1.80;99.90;;;;;;5134647;28;20206;-67
2022/03/03 04:15:36;;;;;;;35.67;23.52;;;1.70;99.90;;;;;;5134521;28;20200;-67
2022/03/03 04:18:04;;;;;;;32.10;23.15;;;1.70;99.90;;;;;;5134215;28;20230;-67
2022/03/03 04:20:32;;;;;;;35.65;23.55;;;1.70;99.90;;;;;;5134247;28;20307;-67
2022/03/03 04:22:59;;;;;;;34.17;24.50;;;1.60;99.90;;;;;;5134465;28;20196;-67
2022/03/03 04:25:26;;;;;;;35.58;23.05;;;1.70;99.90;;;;;;5134304;28;20666;-67
2022/03/03 04:27:53;;;;;;;40.40;24.52;;;1.70;99.90;;;;;;5134099;28;20228;-67
2022/03/03 04:30:20;;;;;;;36.10;24.95;;;1.70;99.90;;;;;;5134256;28;20304;-67
2022/03/03 04:32:47;;;;;;;36.17;23.08;;;1.70;99.90;;;;;;5134315;28;20197;-67
2022/03/03 04:35:14;;;;;;;33.92;23.55;;;1.70;99.90;;;;;;5134159;28;20205;-67
2022/03/03 04:37:42;;;;;;;34.50;23.30;;;1.70;99.90;;;;;;5134070;28;20243;-67
2022/03/03 04:40:09;;;;;;;36.50;24.40;;;1.70;99.90;;;;;;5134086;28;20307;-67
2022/03/03 04:42:36;;;;;;;33.38;23.35;;;1.70;99.90;;;;;;5134134;27;20200;-67
2022/03/03 04:45:04;;;;;;;36.42;24.35;;;1.60;99.90;;;;;;5134406;28;20201;-67
2022/03/03 04:47:31;;;;;;;37.40;25.17;;;1.70;99.90;;;;;;5134110;28;20211;-67
2022/03/03 04:49:58;;;;;;;36.80;25.70;;;1.50;99.90;;;;;;5134057;27;20284;-67
2022/03/03 04:52:25;;;;;;;40.92;24.55;;;1.20;99.90;;;;;;5134274;28;20197;-66
2022/03/03 04:54:53;;;;;;;40.25;26.10;;;1.10;99.90;;;;;;5133982;28;20201;-67
2022/03/03 04:57:20;;;;;;;36.63;23.50;;;1.00;99.90;;;;;;5134151;27;20196;-67
2022/03/03 04:59:47;;;;;;;35.05;24.10;;;1.10;99.90;;;;;;5133850;28;20228;-67
2022/03/03 05:02:14;;;;;;;33.10;23.95;;;1.20;99.90;;;;;;5134098;28;20211;-67
2022/03/03 05:04:41;;;;;;;35.63;23.27;;;1.30;99.90;;;;;;5133833;28;20205;-67
2022/03/03 05:07:08;;;;;;;36.20;24.05;;;1.40;99.90;;;;;;5134284;28;20196;-67
2022/03/03 05:09:35;;;;;;;37.42;25.02;;;1.50;99.90;;;;;;5133757;28;20307;-67
2022/03/03 05:12:04;;;;;;;39.80;25.80;;;1.50;99.90;;;;;;5134152;28;20200;-67
2022/03/03 05:14:31;;;;;;;39.95;25.55;;;1.50;99.90;;;;;;5135460;27;20200;-67
2022/03/03 05:16:58;;;;;;;32.30;23.35;;;1.40;99.90;;;;;;5137676;27;20670;-67
2022/03/03 05:19:25;;;;;;;37.35;24.58;;;1.40;99.90;;;;;;5137567;27;20225;-66
2022/03/03 05:21:51;;;;;;;35.58;23.50;;;1.40;99.90;;;;;;5137375;27;20209;-67
2022/03/03 05:24:18;;;;;;;38.97;23.52;;;1.40;99.90;;;;;;5137655;27;20201;-66
2022/03/03 05:26:45;;;;;;;37.05;24.00;;;1.40;99.90;;;;;;5137702;27;20229;-67
2022/03/03 05:29:13;;;;;;;35.83;23.52;;;1.30;99.90;;;;;;5137517;27;20307;-67
2022/03/03 05:31:41;;;;;;;36.15;24.00;;;1.30;99.90;;;;;;5136921;27;20733;-67
2022/03/03 05:34:08;;;;;;;39.38;24.73;;;1.30;99.90;;;;;;5137367;27;20201;-66
2022/03/03 05:36:40;;;;;;;37.40;24.80;;;1.00;99.90;;;;;;5137365;27;20206;-66
2022/03/03 05:39:08;;;;;;;45.20;25.13;;;0.90;99.90;;;;;;5137254;27;20255;-66
2022/03/03 05:41:35;;;;;;;35.78;24.80;;;1.00;99.90;;;;;;5137001;27;20197;-66
2022/03/03 05:44:03;;;;;;;35.70;23.90;;;1.10;99.90;;;;;;5137163;27;20295;-67
2022/03/03 05:46:31;;;;;;;39.50;25.98;;;1.00;99.90;;;;;;5137074;27;20562;-66
2022/03/03 05:48:58;;;;;;;41.25;25.13;;;0.90;99.90;;;;;;5137034;27;20315;-67
2022/03/03 05:51:25;;;;;;;37.25;24.45;;;0.70;99.90;;;;;;5136824;27;20226;-67
2022/03/03 05:53:52;;;;;;;37.50;24.83;;;0.90;99.90;;;;;;5136956;27;20236;-67
2022/03/03 05:56:22;;;;;;;38.13;24.85;;;1.00;99.90;;;;;;5136941;27;20563;-67
2022/03/03 05:58:50;;;;;;;37.65;24.75;;;1.00;99.90;;;;;;5136601;27;20309;-67
2022/03/03 06:01:18;;;;;;;36.10;24.17;;;1.10;99.90;;;;;;5136756;27;20204;-67
2022/03/03 06:03:50;;;;;;;36.17;24.70;;;1.10;99.90;;;;;;5136739;27;20295;-67
2022/03/03 06:06:18;;;;;;;34.67;23.95;;;1.20;99.90;;;;;;5136815;27;20189;-67
2022/03/03 06:08:57;;;;;;;32.97;23.52;;;1.20;99.90;;;;;;5136583;27;20307;-67
2022/03/03 06:11:27;;;;;;;38.40;23.27;;;1.20;99.90;;;;;;5136569;27;20189;-67
2022/03/03 06:14:05;;;;;;;34.28;24.48;;;1.30;99.90;;;;;;5136910;27;20211;-67
2022/03/03 06:16:32;;;;;;;34.13;23.27;;;1.30;99.90;;;;;;5136412;27;20645;-67
2022/03/03 06:19:00;;;;;;;37.38;24.20;;;1.40;99.90;;;;;;5136271;27;20224;-67
2022/03/03 06:21:27;;;;;;;33.17;23.35;;;1.30;99.90;;;;;;5136271;27;20565;-67
2022/03/03 06:23:54;;;;;;;37.78;25.08;;;1.10;99.90;;;;;;5136027;27;20300;-67
2022/03/03 06:26:21;;;;;;;34.17;23.70;;;1.10;99.90;;;;;;5135565;27;20759;-67
2022/03/03 06:28:49;;;;;;;37.88;23.20;;;1.20;99.90;;;;;;5136682;27;20252;-67
2022/03/03 06:31:16;;;;;;;31.63;22.65;;;1.30;99.90;;;;;;5135817;27;20203;-67
2022/03/03 06:33:44;;;;;;;37.63;24.33;;;1.40;99.90;;;;;;5136045;27;20196;-67
2022/03/03 06:36:12;;;;;;;42.00;26.13;;;1.50;99.90;;;;;;5136250;27;20197;-67
2022/03/03 06:38:39;;;;;;;33.63;23.70;;;1.50;99.90;;;;;;5136107;27;20221;-67
2022/03/03 06:41:06;;;;;;;37.42;25.50;;;1.50;99.90;;;;;;5135806;27;20221;-67
2022/03/03 06:43:34;;;;;;;37.05;25.65;;;1.50;99.90;;;;;;5135971;27;20602;-67
2022/03/03 06:46:00;;;;;;;36.75;25.80;;;1.40;99.90;;;;;;5135922;27;20201;-67
2022/03/03 06:48:27;;;;;;;40.30;25.58;;;1.40;99.90;;;;;;5135610;27;20227;-67
2022/03/03 06:50:56;;;;;;;38.65;24.92;;;1.50;99.90;;;;;;5135662;27;20598;-67
2022/03/03 06:53:28;;;;;;;40.40;26.25;;;1.50;99.90;;;;;;5135652;27;20288;-67
2022/03/03 06:56:00;;;;;;;36.20;26.25;;;1.60;99.90;;;;;;5135758;27;20238;-67
2022/03/03 06:58:30;;;;;;;39.55;25.85;;;1.50;99.90;;;;;;5135591;27;20227;-67
2022/03/03 07:00:57;;;;;;;39.50;25.40;;;1.60;99.90;;;;;;5135262;27;20694;-67
2022/03/03 07:03:26;;;;;;;37.70;25.63;;;1.60;99.90;;;;;;5135518;27;20624;-67
2022/03/03 07:05:53;;;;;;;40.88;26.00;;;1.50;99.90;;;;;;5135576;27;20556;-67
2022/03/03 07:08:21;;;;;;;38.45;25.95;;;1.40;99.90;;;;;;5135490;27;20217;-67
2022/03/03 07:10:49;;;;;;;39.78;28.15;;;1.20;99.90;;;;;;5135233;27;20295;-67
2022/03/03 07:13:18;;;;;;;42.55;28.63;;;1.00;99.90;;;;;;5135545;27;20197;-67
2022/03/03 07:15:49;;;;;;;41.08;28.17;;;0.70;99.90;;;;;;5135194;27;20708;-68
2022/03/03 07:18:19;;;;;;;41.60;28.30;;;0.60;99.90;;;;;;5122889;27;20289;-67
2022/03/03 07:20:54;;;;;;;43.35;28.45;;;0.50;99.90;;;;;;5113612;28;20205;-67
2022/03/03 07:23:36;;;;;;;42.08;27.50;;;0.60;99.90;;;;;;5113751;28;20189;-67
2022/03/03 07:26:06;;;;;;;40.13;27.55;;;0.70;99.90;;;;;;5113468;28;20250;-68
2022/03/03 07:28:34;;;;;;;35.40;24.75;;;0.70;99.90;;;;;;5113071;28;20235;-67
2022/03/03 07:31:03;;;;;;;39.42;24.38;;;1.00;99.90;;;;;;5113468;28;20616;-67
2022/03/03 07:33:40;;;;;;;42.40;26.88;;;1.30;99.90;;;;;;5113275;28;20205;-67
2022/03/03 07:36:09;;;;;;;38.72;24.98;;;1.40;99.90;;;;;;5113362;28;20201;-67
2022/03/03 07:38:38;;;;;;;37.60;26.20;;;1.50;99.90;;;;;;5111741;28;20775;-67
2022/03/03 07:41:07;;;;;;;39.20;27.42;;;1.70;99.90;;;;;;5112516;28;20227;-67
2022/03/03 07:43:34;;;;;;;43.38;26.52;;;1.50;99.90;;;;;;5113290;28;20201;-67
2022/03/03 07:46:01;;;;;;;44.25;27.83;;;1.50;99.90;;;;;;5113161;28;20201;-67
2022/03/03 07:48:28;;;;;;;39.50;26.75;;;1.40;99.90;;;;;;5113358;28;20556;-68
2022/03/03 07:50:55;;;;;;;36.55;25.65;;;1.40;99.90;;;;;;5112765;28;20201;-67
2022/03/03 07:53:21;;;;;;;41.25;26.77;;;1.60;99.90;;;;;;5113382;28;20304;-68
2022/03/03 07:55:51;;;;;;;38.65;25.20;;;1.80;99.90;;;;;;5113402;28;20202;-68
2022/03/03 07:58:22;;;;;;;40.78;27.42;;;2.00;99.90;;;;;;5112397;28;20225;-68
2022/03/03 08:00:51;;;;;;;38.05;25.80;;;2.10;99.90;;;;;;5112485;28;20224;-67
2022/03/03 08:03:20;;;;;;;43.10;27.38;;;2.20;99.90;;;;;;5112708;28;20296;-69
2022/03/03 08:05:51;;;;;;;36.53;26.40;;;2.30;99.90;;;;;;5112735;28;20574;-69
2022/03/03 08:08:23;;;;;;;38.92;27.52;;;2.20;99.90;;;;;;5112743;28;20228;-69
2022/03/03 08:10:50;;;;;;;45.30;26.27;;;2.30;99.90;;;;;;5112554;28;20287;-69
2022/03/03 08:13:20;;;;;;;36.72;26.20;;;2.40;99.90;;;;;;5112512;28;20201;-69
2022/03/03 08:15:47;;;;;;;39.05;27.08;;;2.60;99.90;;;;;;5112950;28;20208;-69
2022/03/03 08:18:14;;;;;;;39.88;27.50;;;2.70;99.90;;;;;;5112540;28;20249;-69
2022/03/03 08:20:41;;;;;;;39.70;28.00;;;2.70;99.90;;;;;;5112606;28;20240;-68
2022/03/03 08:23:09;;;;;;;42.53;28.95;;;2.80;99.90;;;;;;5113883;28;20292;-67
2022/03/03 08:25:36;;;;;;;43.25;28.40;;;2.80;99.90;;;;;;5114000;28;20228;-67
2022/03/03 08:28:04;;;;;;;41.83;29.35;;;2.70;99.90;;;;;;5113900;28;20229;-67
2022/03/03 08:30:32;;;;;;;45.45;29.02;;;2.70;99.90;;;;;;5113691;28;20220;-67
2022/03/03 08:33:08;;;;;;;43.22;28.60;;;2.60;99.90;;;;;;5113920;28;20240;-67
2022/03/03 08:35:39;;;;;;;41.13;28.27;;;2.60;99.90;;;;;;5113847;28;20204;-67
2022/03/03 08:38:17;;;;;;;41.10;28.63;;;2.70;99.90;;;;;;5113794;28;20626;-68
2022/03/03 08:40:45;;;;;;;42.63;27.67;;;2.80;99.90;;;;;;5113451;28;20228;-67
2022/03/03 08:43:15;;;;;;;37.72;27.80;;;2.70;99.90;;;;;;5113890;28;20198;-67
2022/03/03 08:45:45;;;;;;;39.05;28.83;;;2.80;99.90;;;;;;5113696;28;20204;-67
2022/03/03 08:48:12;;;;;;;43.83;28.77;;;3.00;99.90;;;;;;5113557;28;20629;-67
2022/03/03 08:50:40;;;;;;;42.08;29.05;;;3.00;99.90;;;;;;5116795;28;20211;-67
2022/03/03 08:53:09;;;;;;;39.30;28.27;;;3.10;99.90;;;;;;5117697;28;20606;-67
2022/03/03 08:55:37;;;;;;;39.08;26.95;;;3.10;99.90;;;;;;5117426;28;20296;-67
2022/03/03 08:58:06;;;;;;;38.60;28.35;;;3.10;99.90;;;;;;5117343;28;20713;-67
2022/03/03 09:00:33;;;;;;;41.25;29.33;;;3.10;99.90;;;;;;5117126;28;20650;-67
2022/03/03 09:03:03;;;;;;;40.97;27.17;;;3.20;99.90;;;;;;5117357;28;20204;-67
2022/03/03 09:05:30;;;;;;;41.28;28.20;;;3.30;99.90;;;;;;5117491;27;20292;-67
2022/03/03 09:07:56;;;;;;;39.10;28.08;;;3.40;99.90;;;;;;5118000;28;20225;-67
2022/03/03 09:10:23;;;;;;;40.45;28.42;;;3.50;99.90;;;;;;5117186;28;20651;-67
2022/03/03 09:12:50;;;;;;;41.03;29.33;;;3.60;99.90;;;;;;5117209;28;20615;-67
2022/03/03 09:15:18;;;;;;;47.63;30.75;;;3.70;99.90;;;;;;5117126;28;20208;-67
2022/03/03 09:17:45;;;;;;;45.83;29.80;;;3.70;99.90;;;;;;5116997;28;20227;-67
2022/03/03 09:20:15;;;;;;;41.88;29.77;;;3.80;99.90;;;;;;5116842;28;20225;-67
2022/03/03 09:22:42;;;;;;;41.13;28.08;;;3.90;99.90;;;;;;5117046;28;20207;-67
2022/03/03 09:25:09;;;;;;;48.33;30.42;;;4.00;99.80;;;;;;5116851;28;20663;-67
2022/03/03 09:27:36;;;;;;;41.83;28.67;;;4.00;99.80;;;;;;5116801;28;20216;-67
2022/03/03 09:30:04;;;;;;;40.38;27.50;;;4.10;99.90;;;;;;5116714;28;20198;-68
2022/03/03 09:32:30;;;;;;;40.58;27.52;;;4.30;99.80;;;;;;5116844;28;20201;-67
2022/03/03 09:34:57;;;;;;;44.95;29.25;;;4.40;99.20;;;;;;5116705;28;20237;-67
2022/03/03 09:37:25;;;;;;;47.88;30.52;;;4.50;99.00;;;;;;5116588;28;20288;-67
2022/03/03 09:39:52;;;;;;;43.33;28.33;;;4.50;98.50;;;;;;5116085;28;20233;-68
2022/03/03 09:42:19;;;;;;;45.50;30.58;;;4.60;99.30;;;;;;5116716;28;20201;-67
2022/03/03 09:44:46;;;;;;;44.92;29.98;;;4.60;99.00;;;;;;5116611;28;20201;-67
2022/03/03 09:47:16;;;;;;;40.63;29.75;;;4.60;97.70;;;;;;5116585;28;20209;-67
2022/03/03 09:49:43;;;;;;;45.28;31.08;;;4.60;97.40;;;;;;5116022;28;20308;-67
2022/03/03 09:52:14;;;;;;;42.40;28.48;;;4.70;97.70;;;;;;5116327;28;20197;-67
2022/03/03 09:54:44;;;;;;;41.05;28.52;;;4.90;97.60;;;;;;5116307;28;20201;-67
2022/03/03 09:57:11;;;;;;;41.60;27.77;;;5.10;97.40;;;;;;5116313;28;20201;-67
2022/03/03 09:59:37;;;;;;;35.55;26.83;;;5.40;97.00;;;;;;5115907;28;20725;-66
2022/03/03 10:02:05;;;;;;;41.22;27.27;;;5.60;96.10;;;;;;5114939;28;20695;-67
2022/03/03 10:04:33;;;;;;;38.03;27.15;;;5.80;96.20;;;;;;5115957;28;20208;-67
2022/03/03 10:07:05;;;;;;;37.97;26.75;;;5.90;96.10;;;;;;5116174;28;20201;-67
2022/03/03 10:09:32;;;;;;;35.90;27.35;;;6.10;96.00;;;;;;5116357;28;20222;-67
2022/03/03 10:12:03;;;;;;;39.75;27.88;;;6.30;94.00;;;;;;5115931;28;20197;-68
2022/03/03 10:14:32;;;;;;;37.85;27.73;;;6.60;93.60;;;;;;5116099;27;20208;-67
2022/03/03 10:16:59;;;;;;;35.88;27.25;;;6.60;93.10;;;;;;5115865;28;20222;-68
2022/03/03 10:19:26;;;;;;;38.15;28.35;;;6.80;92.90;;;;;;5115960;28;20229;-68
2022/03/03 10:21:53;;;;;;;36.55;26.38;;;6.90;91.90;;;;;;5115602;28;20649;-67
2022/03/03 10:24:24;;;;;;;37.88;26.92;;;7.40;91.60;;;;;;5116000;28;20197;-67
2022/03/03 10:26:57;;;;;;;33.25;26.20;;;7.70;88.60;;;;;;5115454;28;20205;-67
2022/03/03 10:29:27;;;;;;;34.25;26.77;;;7.90;86.20;;;;;;5115595;28;20233;-67
2022/03/03 10:31:55;;;;;;;31.63;24.88;;;8.30;85.50;;;;;;5115227;28;20624;-67
2022/03/03 10:34:26;;;;;;;32.80;25.92;;;8.60;82.40;;;;;;5115553;28;20197;-67
2022/03/03 10:36:58;;;;;;;32.83;24.95;;;8.60;79.60;;;;;;5115762;28;20297;-67
2022/03/03 10:39:25;;;;;;;32.88;25.00;;;8.50;80.70;;;;;;5115458;28;20225;-67
2022/03/03 10:41:55;;;;;;;38.28;26.55;;;9.10;79.80;;;;;;5115108;28;20217;-67
2022/03/03 10:44:30;;;;;;;32.88;26.55;;;9.40;75.30;;;;;;5115361;28;20776;-67
2022/03/03 10:47:05;;;;;;;32.65;25.65;;;9.40;76.20;;;;;;5115582;28;20303;-67
2022/03/03 10:49:33;;;;;;;30.85;24.13;;;9.40;73.30;;;;;;5115208;28;20278;-65
2022/03/03 10:52:16;;;;;;;36.42;25.55;;;9.70;72.90;;;;;;5115037;28;20197;-68
2022/03/03 10:54:54;;;;;;;35.35;25.13;;;10.50;70.00;;;;;;5115181;28;20288;-67
2022/03/03 10:57:39;;;;;;;32.70;26.50;;;10.60;68.20;;;;;;5114914;28;20655;-67
2022/03/03 11:00:10;;;;;;;30.63;26.55;;;10.70;66.40;;;;;;5114901;28;20639;-68
2022/03/03 11:02:39;;;;;;;31.55;24.48;;;10.30;65.90;;;;;;5115069;28;20267;-67
2022/03/03 11:05:09;;;;;;;29.73;25.05;;;9.70;68.40;;;;;;5114952;28;20284;-67
2022/03/03 11:07:37;;;;;;;34.88;25.23;;;9.30;70.70;;;;;;5114950;28;20205;-67
2022/03/03 11:10:05;;;;;;;33.10;24.88;;;9.00;71.40;;;;;;5114833;28;20720;-67
2022/03/03 11:12:33;;;;;;;30.13;23.35;;;8.90;73.70;;;;;;5114767;28;20207;-67
2022/03/03 11:15:01;;;;;;;34.20;24.88;;;9.10;70.50;;;;;;5114764;28;20205;-67
2022/03/03 11:17:30;;;;;;;31.30;24.23;;;9.60;71.00;;;;;;5114986;28;20201;-68
2022/03/03 11:19:59;;;;;;;28.77;23.40;;;9.80;68.50;;;;;;5114557;28;20320;-68
2022/03/03 11:22:26;;;;;;;28.33;22.52;;;10.70;69.50;;;;;;5114618;28;20225;-67
2022/03/03 11:24:56;;;;;;;30.92;23.63;;;11.40;63.00;;;;;;5114454;28;20728;-67
2022/03/03 11:27:35;;;;;;;27.23;22.08;;;12.00;59.70;;;;;;5114330;28;20223;-68
2022/03/03 11:30:20;;;;;;;28.42;22.85;;;12.30;58.90;;;;;;5114358;28;20217;-68
2022/03/03 11:33:26;;;;;;;28.13;23.60;;;14.00;57.60;;;;;;5114562;28;20232;-66
2022/03/03 11:35:55;;;;;;;28.98;23.98;;;15.50;53.80;;;;;;5114435;28;20219;-66
2022/03/03 11:38:24;;;;;;;31.40;24.00;;;15.90;49.20;;;;;;5114260;27;20225;-66
2022/03/03 11:40:54;;;;;;;29.20;24.70;;;16.00;47.70;;;;;;5114546;28;20604;-66
2022/03/03 11:43:21;;;;;;;28.13;23.67;;;14.30;47.10;;;;;;5114077;28;20682;-66
2022/03/03 11:45:52;;;;;;;27.23;22.85;;;13.60;51.70;;;;;;5114288;28;20205;-66
2022/03/03 11:48:22;;;;;;;29.00;23.52;;;13.10;51.70;;;;;;5114177;28;20221;-66
2022/03/03 11:50:49;;;;;;;31.00;24.27;;;12.90;52.40;;;;;;5114359;28;20193;-66
2022/03/03 11:53:24;;;;;;;25.70;21.63;;;12.10;51.70;;;;;;5114478;28;20204;-68
2022/03/03 11:55:58;;;;;;;27.33;22.15;;;11.50;52.30;;;;;;5114084;28;20211;-68
2022/03/03 11:58:31;;;;;;;30.20;23.20;;;11.60;53.10;;;;;;5114220;28;20244;-68
2022/03/03 12:01:16;;;;;;;30.05;23.15;;;11.60;53.80;;;;;;5113997;28;20719;-67
2022/03/03 12:04:05;;;;;;;28.63;23.42;;;11.60;54.90;;;;;;5114033;28;20207;-68
2022/03/03 12:06:40;;;;;;;25.35;22.38;;;12.00;54.70;;;;;;5114190;28;20205;-68
2022/03/03 12:09:18;;;;;;;27.33;22.60;;;11.90;53.00;;;;;;5113791;28;20760;-68
2022/03/03 12:11:44;;;;;;;31.45;23.38;;;12.10;53.40;;;;;;5113928;28;20204;-67
2022/03/03 12:14:33;;;;;;;29.13;23.13;;;12.30;52.50;;;;;;5113981;28;20201;-67
2022/03/03 12:17:39;;;;;;;26.92;22.60;;;12.30;52.80;;;;;;5113854;28;20206;-68
2022/03/03 12:20:37;;;;;;;27.13;24.05;;;13.70;52.80;;;;;;5113824;28;20622;-68
2022/03/03 12:23:12;;;;;;;28.75;22.80;;;13.80;49.50;;;;;;5113701;28;20221;-68
2022/03/03 12:26:00;;;;;;;27.05;22.20;;;14.20;49.70;;;;;;5117287;28;20734;-68
2022/03/03 12:28:34;;;;;;;28.15;23.80;;;15.10;49.00;;;;;;5117835;28;20311;-66
2022/03/03 12:31:01;;;;;;;30.65;23.42;;;15.00;48.00;;;;;;5117821;28;20294;-66
2022/03/03 12:33:30;;;;;;;26.95;24.05;;;15.30;48.90;;;;;;5117809;28;20236;-66
2022/03/03 12:36:02;;;;;;;26.23;23.52;;;15.60;47.20;;;;;;5117887;27;20205;-66
2022/03/03 12:38:29;;;;;;;28.30;24.38;;;16.40;48.30;;;;;;5119076;28;20308;-68
2022/03/03 12:40:55;;;;;;;29.65;25.20;;;16.90;46.20;;;;;;5118720;28;20197;-68
2022/03/03 12:43:22;;;;;;;27.40;24.38;;;16.50;44.20;;;;;;5118879;28;20292;-68
2022/03/03 12:45:50;;;;;;;31.00;25.35;;;16.20;44.60;;;;;;5118815;28;20201;-68